Time;durP1;ratioP1;P1;durP2;ratioP2;P2;SDS_P1;SDS_P2;PMS_P1;PMS_P2;Temp;Humidity;BMP_temperature;BMP_pressure;BME280_temperature;BME280_humidity;BME280_pressure;Samples;Min_cycle;Max_cycle;Signal;HPM_P1;HPM_P2
2021/07/09 00:01:29;;;;;;;11.98;5.75;;;;;;;18.59;59.92;100942.72;5036481;28;20129;-73
2021/07/09 00:03:57;;;;;;;14.73;5.32;;;;;;;18.59;60.37;100931.41;5038843;28;20045;-73
2021/07/09 00:06:24;;;;;;;15.32;6.32;;;;;;;18.57;59.97;100939.41;5046448;28;20072;-70
2021/07/09 00:08:51;;;;;;;22.80;6.10;;;;;;;18.47;60.35;100929.19;5046043;28;20139;-72
2021/07/09 00:11:18;;;;;;;20.73;5.57;;;;;;;18.49;60.32;100926.03;5044409;28;20128;-69
2021/07/09 00:13:46;;;;;;;13.18;4.97;;;;;;;18.54;60.61;100933.56;5033847;28;20052;-65
2021/07/09 00:16:15;;;;;;;14.50;5.18;;;;;;;18.56;60.39;100934.06;5041847;28;20124;-67
2021/07/09 00:18:43;;;;;;;16.33;5.32;;;;;;;18.56;60.27;100934.06;5045586;28;20170;-65
2021/07/09 00:21:10;;;;;;;11.18;5.70;;;;;;;18.48;60.25;100930.03;5044012;28;20132;-71
2021/07/09 00:23:37;;;;;;;15.52;5.95;;;;;;;18.45;60.19;100925.84;5043348;28;20088;-70
2021/07/09 00:26:04;;;;;;;15.85;6.13;;;;;;;18.47;60.13;100928.38;5046397;28;20068;-71
2021/07/09 00:28:31;;;;;;;15.23;5.30;;;;;;;18.55;60.26;100944.53;5039521;28;20136;-78
2021/07/09 00:30:58;;;;;;;11.73;4.82;;;;;;;18.55;60.27;100941.72;5040156;28;20128;-74
2021/07/09 00:33:25;;;;;;;20.02;6.13;;;;;;;18.49;60.65;100931.69;5042727;28;20063;-73
2021/07/09 00:35:52;;;;;;;17.23;5.68;;;;;;;18.49;60.41;100926.03;5035552;28;20045;-74
2021/07/09 00:38:19;;;;;;;14.30;5.75;;;;;;;18.47;60.49;100931.19;5057786;28;20583;-75
2021/07/09 00:40:46;;;;;;;10.18;4.80;;;;;;;18.45;60.55;100922.19;5044851;28;20080;-65
2021/07/09 00:43:13;;;;;;;16.50;7.03;;;;;;;18.42;60.74;100925.66;5042623;28;20057;-66
2021/07/09 00:45:40;;;;;;;12.45;5.57;;;;;;;18.48;60.86;100936.50;5046237;28;20145;-66
2021/07/09 00:48:07;;;;;;;12.27;5.18;;;;;;;18.47;60.75;100928.38;5039557;28;20072;-73
2021/07/09 00:50:34;;;;;;;17.90;6.30;;;;;;;18.46;60.61;100932.34;5043399;28;20132;-71
2021/07/09 00:53:01;;;;;;;14.23;4.63;;;;;;;18.21;60.57;100891.47;5039306;28;20068;-64
2021/07/09 00:55:28;;;;;;;18.05;5.57;;;;;;;18.23;60.68;100906.13;5039782;28;20037;-66
2021/07/09 00:57:55;;;;;;;11.48;5.10;;;;;;;18.31;61.06;100916.63;5037125;28;20069;-65
2021/07/09 01:00:23;;;;;;;14.07;5.05;;;;;;;18.32;60.94;100920.28;5043610;28;20049;-71
2021/07/09 01:02:50;;;;;;;12.73;5.32;;;;;;;18.30;60.85;100928.28;5034947;28;20501;-66
2021/07/09 01:05:17;;;;;;;19.73;5.85;;;;;;;18.21;61.06;100917.72;5035546;28;20152;-64
2021/07/09 01:07:45;;;;;;;13.93;5.65;;;;;;;18.19;61.02;100920.06;5041193;28;20073;-64
2021/07/09 01:10:16;;;;;;;14.75;4.38;;;;;;;18.13;61.46;100917.69;5034856;28;20075;-66
2021/07/09 01:12:44;;;;;;;15.57;5.60;;;;;;;18.03;61.52;100898.19;5038493;28;20045;-69
2021/07/09 01:15:14;;;;;;;15.00;5.30;;;;;;;17.77;61.47;100877.03;5048767;28;20084;-66
2021/07/09 01:17:41;;;;;;;19.70;6.20;;;;;;;18.09;61.39;100916.69;5031287;28;20136;-65
2021/07/09 01:20:11;;;;;;;14.32;5.47;;;;;;;18.08;61.73;100904.50;5036162;28;20091;-72
2021/07/09 01:22:39;;;;;;;15.18;4.68;;;;;;;18.05;61.77;100910.84;5045277;28;20073;-76
2021/07/09 01:25:09;;;;;;;14.70;5.72;;;;;;;17.98;61.41;100899.97;5052034;28;20049;-73
2021/07/09 01:27:37;;;;;;;17.73;5.55;;;;;;;17.94;61.78;100896.09;5039799;28;20073;-75
2021/07/09 01:30:10;;;;;;;17.35;6.68;;;;;;;17.94;61.91;100898.94;5039823;28;20041;-70
2021/07/09 01:32:37;;;;;;;19.85;5.88;;;;;;;17.90;61.79;100897.09;5036331;28;20041;-70
2021/07/09 01:35:05;;;;;;;19.95;5.85;;;;;;;17.93;61.91;100888.78;5047820;28;20080;-69
2021/07/09 01:37:32;;;;;;;17.52;5.80;;;;;;;17.80;61.80;100880.38;5053535;28;20106;-68
2021/07/09 01:39:59;;;;;;;15.65;5.75;;;;;;;17.89;61.87;100886.94;5040891;28;20121;-70
2021/07/09 01:42:26;;;;;;;15.55;5.43;;;;;;;17.82;62.26;100875.25;5042111;28;21550;-71
2021/07/09 01:44:53;;;;;;;13.77;5.85;;;;;;;17.82;62.03;100883.75;5040242;28;20095;-68
2021/07/09 01:47:20;;;;;;;17.75;6.03;;;;;;;17.77;61.94;100877.03;5035326;28;20132;-74
2021/07/09 01:49:56;;;;;;;10.70;5.40;;;;;;;17.75;61.82;100864.38;5039015;28;20555;-67
2021/07/09 01:52:24;;;;;;;16.00;6.63;;;;;;;17.74;62.09;100874.84;5035483;28;20136;-73
2021/07/09 01:54:52;;;;;;;13.10;5.63;;;;;;;17.73;62.53;100864.69;5064551;28;20077;-75
2021/07/09 01:57:19;;;;;;;15.60;6.18;;;;;;;17.76;62.40;100868.91;5031824;28;20133;-73
2021/07/09 01:59:46;;;;;;;13.52;5.25;;;;;;;17.76;62.68;100858.44;5040759;28;20055;-73
2021/07/09 02:02:13;;;;;;;15.68;5.70;;;;;;;17.77;62.71;100860.09;5040703;28;20136;-68
2021/07/09 02:04:51;;;;;;;14.27;5.55;;;;;;;17.66;62.29;100852.19;5041392;28;20124;-67
2021/07/09 02:07:19;;;;;;;14.98;5.28;;;;;;;17.61;62.49;100839.03;5033914;28;20120;-69
2021/07/09 02:09:48;;;;;;;17.77;5.82;;;;;;;17.62;62.59;100852.00;5043029;28;20132;-66
2021/07/09 02:12:17;;;;;;;16.33;5.53;;;;;;;17.69;62.78;100849.53;5033188;28;20083;-65
2021/07/09 02:14:44;;;;;;;19.33;5.90;;;;;;;17.63;62.51;100842.34;5049663;28;20073;-67
2021/07/09 02:17:14;;;;;;;17.02;5.13;;;;;;;17.52;62.77;100830.47;5040213;28;20120;-70
2021/07/09 02:19:42;;;;;;;13.80;5.85;;;;;;;17.60;62.71;100848.63;5040862;28;20128;-71
2021/07/09 02:22:12;;;;;;;17.70;5.72;;;;;;;17.58;62.68;100850.97;5034160;28;20127;-66
2021/07/09 02:24:42;;;;;;;22.90;5.80;;;;;;;17.58;62.55;100845.31;5033677;28;20053;-71
2021/07/09 02:27:09;;;;;;;17.70;4.88;;;;;;;17.56;62.61;100839.16;5033112;28;20140;-71
2021/07/09 02:29:37;;;;;;;16.45;5.57;;;;;;;17.55;62.57;100837.50;5034515;28;20128;-71
2021/07/09 02:32:07;;;;;;;17.87;5.30;;;;;;;17.43;62.96;100823.94;5044669;28;20144;-73
2021/07/09 02:34:35;;;;;;;14.63;5.43;;;;;;;17.33;62.92;100815.72;5033062;28;20042;-68
2021/07/09 02:37:04;;;;;;;13.48;5.78;;;;;;;17.36;63.12;100819.88;5052137;28;20045;-71
2021/07/09 02:39:31;;;;;;;13.90;5.18;;;;;;;17.26;63.07;100813.34;5046502;28;20563;-69
2021/07/09 02:41:58;;;;;;;18.08;5.63;;;;;;;17.36;63.16;100828.34;5037654;28;20055;-67
2021/07/09 02:44:26;;;;;;;19.87;5.27;;;;;;;17.36;63.40;100831.19;5033328;28;20092;-67
2021/07/09 02:46:53;;;;;;;12.83;4.80;;;;;;;17.40;63.42;100827.41;5033112;28;20045;-67
2021/07/09 02:49:21;;;;;;;13.13;5.37;;;;;;;17.31;62.82;100823.69;5030679;28;20128;-67
2021/07/09 02:51:49;;;;;;;12.87;4.17;;;;;;;17.34;62.82;100819.41;5034031;28;20107;-67
2021/07/09 02:54:16;;;;;;;15.90;5.82;;;;;;;17.35;63.14;100827.53;5043165;28;20501;-67
2021/07/09 02:56:44;;;;;;;11.73;5.30;;;;;;;17.32;63.16;100824.50;5042295;28;20099;-68
2021/07/09 02:59:11;;;;;;;13.60;5.72;;;;;;;17.26;62.90;100821.81;5044875;28;20521;-72
2021/07/09 03:01:41;;;;;;;18.40;7.33;;;;;;;17.17;63.27;100818.09;5049249;28;20132;-75
2021/07/09 03:04:09;;;;;;;18.40;6.07;;;;;;;16.96;63.30;100777.41;5031974;28;20116;-76
2021/07/09 03:06:36;;;;;;;18.40;6.65;;;;;;;17.14;63.05;100829.19;5064630;28;20046;-73
2021/07/09 03:09:05;;;;;;;18.67;6.37;;;;;;;17.10;63.19;100822.50;5039647;28;20120;-74
2021/07/09 03:11:33;;;;;;;13.00;6.17;;;;;;;17.07;63.33;100821.16;5040095;28;20077;-72
2021/07/09 03:14:01;;;;;;;16.43;5.77;;;;;;;16.96;63.22;100812.09;5038145;28;20380;-74
2021/07/09 03:16:28;;;;;;;18.13;6.10;;;;;;;17.05;63.41;100831.91;5045680;28;20136;-74
2021/07/09 03:18:55;;;;;;;16.27;6.20;;;;;;;17.05;63.72;100844.03;5041985;28;20120;-69
2021/07/09 03:21:22;;;;;;;21.57;6.90;;;;;;;17.05;63.56;100843.19;5038438;28;20132;-65
2021/07/09 03:23:49;;;;;;;18.50;6.00;;;;;;;17.10;63.63;100834.63;5047350;28;20136;-68
2021/07/09 03:26:16;;;;;;;18.00;5.18;;;;;;;17.13;63.72;100839.63;5035507;28;20069;-71
2021/07/09 03:28:42;;;;;;;17.80;5.95;;;;;;;17.15;63.98;100836.47;5036576;28;20124;-77
2021/07/09 03:31:09;;;;;;;12.10;5.47;;;;;;;17.20;63.70;100845.69;5042147;28;20144;-68
2021/07/09 03:33:36;;;;;;;11.93;5.10;;;;;;;16.93;63.50;100800.59;5040984;28;20045;-70
2021/07/09 03:36:05;;;;;;;16.58;6.13;;;;;;;17.19;64.07;100841.16;5031671;28;20128;-70
2021/07/09 03:38:32;;;;;;;22.40;5.90;;;;;;;17.17;63.92;100829.38;5038593;28;20560;-75
2021/07/09 03:40:59;;;;;;;20.50;5.80;;;;;;;17.21;63.72;100840.84;5036012;28;20505;-72
2021/07/09 03:43:26;;;;;;;11.52;4.63;;;;;;;17.20;63.79;100845.69;5040743;28;20153;-69
2021/07/09 03:45:53;;;;;;;18.15;6.47;;;;;;;17.22;63.93;100834.88;5048259;28;20131;-72
2021/07/09 03:48:20;;;;;;;18.92;7.35;;;;;;;17.18;64.05;100816.91;5053554;28;20084;-73
2021/07/09 03:50:47;;;;;;;26.17;9.83;;;;;;;17.24;64.05;100818.47;5048967;28;20132;-74
2021/07/09 03:53:14;;;;;;;17.20;6.65;;;;;;;17.39;63.98;100836.19;5043764;28;20076;-74
2021/07/09 03:55:41;;;;;;;11.43;5.43;;;;;;;17.30;63.82;100816.38;5045913;28;20077;-75
2021/07/09 03:58:08;;;;;;;12.03;4.87;;;;;;;17.40;63.79;100835.03;5038010;28;20118;-75
2021/07/09 04:00:35;;;;;;;17.67;5.43;;;;;;;17.36;63.76;100825.53;5038084;28;20152;-75
2021/07/09 04:03:02;;;;;;;15.75;7.00;;;;;;;17.33;63.74;100821.34;5041190;28;20132;-71
2021/07/09 04:05:29;;;;;;;21.63;6.47;;;;;;;17.34;63.66;100822.22;5035446;28;20083;-69
2021/07/09 04:07:56;;;;;;;15.48;5.55;;;;;;;17.28;63.96;100811.03;5036463;28;20081;-69
2021/07/09 04:10:22;;;;;;;18.73;5.93;;;;;;;17.28;64.08;100813.84;5071210;28;20141;-68
2021/07/09 04:12:49;;;;;;;15.73;6.65;;;;;;;17.35;63.77;100821.06;5040055;28;20049;-74
2021/07/09 04:15:16;;;;;;;16.73;5.80;;;;;;;16.89;64.03;100744.00;5037658;28;20088;-76
2021/07/09 04:17:43;;;;;;;14.40;5.80;;;;;;;17.16;64.10;100781.69;5046099;28;20076;-75
2021/07/09 04:20:10;;;;;;;15.77;5.77;;;;;;;17.10;63.77;100772.53;5049992;28;20448;-71
2021/07/09 04:22:38;;;;;;;13.07;6.60;;;;;;;17.28;63.66;100805.38;5051771;28;20045;-79
2021/07/09 04:25:10;;;;;;;18.17;6.70;;;;;;;17.25;64.13;100814.50;5040555;28;20046;-76
2021/07/09 04:27:38;;;;;;;12.93;5.67;;;;;;;17.21;63.91;100812.63;5042487;28;20041;-74
2021/07/09 04:30:07;;;;;;;13.93;5.63;;;;;;;17.17;63.91;100803.97;5045092;28;20128;-75
2021/07/09 04:32:34;;;;;;;17.57;7.03;;;;;;;16.87;64.51;100773.66;5065112;28;20069;-74
2021/07/09 04:35:00;;;;;;;15.23;5.80;;;;;;;17.11;63.96;100813.72;5041044;28;20069;-77
2021/07/09 04:37:27;;;;;;;17.30;6.35;;;;;;;17.05;64.18;100809.34;5036753;28;20084;-72
2021/07/09 04:39:54;;;;;;;13.88;5.90;;;;;;;17.04;63.79;100813.31;5047263;28;20136;-72
2021/07/09 04:42:21;;;;;;;19.23;7.43;;;;;;;16.98;64.01;100808.94;5036198;28;20077;-80
2021/07/09 04:44:48;;;;;;;19.45;7.35;;;;;;;16.96;63.95;100797.16;5045651;28;20069;-78
2021/07/09 04:47:15;;;;;;;19.63;6.50;;;;;;;16.88;64.05;100792.25;5048339;28;21340;-77
2021/07/09 04:49:41;;;;;;;13.50;6.93;;;;;;;16.97;64.00;100801.63;5043441;28;20140;-78
2021/07/09 04:52:09;;;;;;;14.40;6.10;;;;;;;17.07;64.52;100800.56;5051183;28;20448;-70
2021/07/09 04:54:36;;;;;;;20.58;6.75;;;;;;;17.28;64.89;100808.22;5042279;28;20077;-72
2021/07/09 04:57:03;;;;;;;17.43;5.83;;;;;;;17.33;64.46;100793.13;5049586;28;20128;-71
2021/07/09 04:59:30;;;;;;;16.77;6.30;;;;;;;17.49;63.95;100814.19;5034054;28;20085;-72
2021/07/09 05:01:56;;;;;;;16.65;6.50;;;;;;;17.44;63.78;100814.31;5041141;28;20127;-71
2021/07/09 05:04:23;;;;;;;22.40;6.43;;;;;;;17.24;63.92;100795.06;5042595;28;20264;-70
2021/07/09 05:06:50;;;;;;;19.00;6.05;;;;;;;17.10;64.16;100791.47;5038486;28;20049;-69
2021/07/09 05:09:18;;;;;;;13.90;5.65;;;;;;;17.00;63.79;100792.53;5034907;28;20486;-75
2021/07/09 05:11:46;;;;;;;11.50;5.35;;;;;;;17.14;63.89;100820.72;5036559;28;20055;-74
2021/07/09 05:14:13;;;;;;;16.58;5.97;;;;;;;17.07;63.85;100818.31;5040118;28;20120;-73
2021/07/09 05:16:40;;;;;;;14.75;6.28;;;;;;;17.01;64.14;100808.31;5075882;28;20492;-62
2021/07/09 05:19:09;;;;;;;17.13;5.80;;;;;;;16.99;64.07;100817.09;5050701;28;20037;-63
2021/07/09 05:21:36;;;;;;;15.63;6.40;;;;;;;16.89;63.87;100803.22;5049584;28;20059;-68
2021/07/09 05:24:09;;;;;;;19.83;5.57;;;;;;;16.96;64.04;100825.38;5036723;28;20458;-72
2021/07/09 05:26:36;;;;;;;14.52;5.18;;;;;;;16.93;64.02;100834.47;5032990;28;20875;-69
2021/07/09 05:29:04;;;;;;;16.23;5.60;;;;;;;16.90;64.35;100824.63;5051497;28;20072;-64
2021/07/09 05:31:33;;;;;;;14.25;5.82;;;;;;;16.95;64.32;100834.97;5041107;28;20132;-62
2021/07/09 05:34:01;;;;;;;14.73;5.78;;;;;;;16.94;64.32;100830.47;5041126;28;20408;-62
2021/07/09 05:36:28;;;;;;;17.98;6.30;;;;;;;17.01;64.58;100819.59;5043756;28;20462;-61
2021/07/09 05:38:55;;;;;;;14.50;6.40;;;;;;;17.09;64.30;100816.00;5037846;28;20451;-62
2021/07/09 05:41:22;;;;;;;19.97;6.20;;;;;;;17.23;64.18;100819.63;5035481;28;20147;-61
2021/07/09 05:43:49;;;;;;;14.85;6.15;;;;;;;17.37;64.25;100822.41;5044516;28;20132;-60
2021/07/09 05:46:16;;;;;;;20.77;6.18;;;;;;;17.57;63.88;100831.50;5035653;28;20073;-62
2021/07/09 05:48:43;;;;;;;15.93;5.88;;;;;;;17.71;64.05;100824.66;5043869;28;20055;-62
2021/07/09 05:51:10;;;;;;;16.88;5.57;;;;;;;17.91;63.80;100833.75;5039614;28;20073;-61
2021/07/09 05:53:37;;;;;;;15.68;7.00;;;;;;;18.11;63.14;100827.56;5033799;28;20142;-61
2021/07/09 05:56:04;;;;;;;19.08;6.50;;;;;;;18.32;62.87;100824.16;5038659;28;20080;-61
2021/07/09 05:58:31;;;;;;;16.90;5.90;;;;;;;18.51;62.89;100827.56;5031509;28;20045;-60
2021/07/09 06:00:57;;;;;;;16.52;6.47;;;;;;;18.55;62.50;100814.44;5037578;28;20536;-61
2021/07/09 06:03:24;;;;;;;14.32;6.00;;;;;;;18.79;62.45;100822.50;5045845;28;20408;-61
2021/07/09 06:05:51;;;;;;;17.02;7.50;;;;;;;18.87;61.96;100821.72;5038095;28;20092;-60
2021/07/09 06:08:18;;;;;;;16.30;7.40;;;;;;;19.02;62.09;100830.88;5031543;28;20128;-60
2021/07/09 06:10:45;;;;;;;18.52;9.98;;;;;;;19.05;61.98;100836.72;5038408;28;20067;-61
2021/07/09 06:13:12;;;;;;;14.40;7.05;;;;;;;18.90;62.10;100804.06;5045655;28;21401;-61
2021/07/09 06:15:38;;;;;;;10.43;6.25;;;;;;;19.26;61.67;100816.25;5036223;28;20064;-61
2021/07/09 06:18:21;;;;;;;13.27;5.97;;;;;;;19.50;61.53;100824.25;5036999;28;20063;-62
2021/07/09 06:20:47;;;;;;;15.23;6.43;;;;;;;19.75;61.20;100833.91;5031992;28;20154;-61
2021/07/09 06:23:15;;;;;;;18.65;6.35;;;;;;;19.94;60.20;100834.38;5030370;28;20547;-61
2021/07/09 06:25:42;;;;;;;16.90;7.00;;;;;;;20.11;60.22;100837.16;5031780;28;20136;-61
2021/07/09 06:28:09;;;;;;;11.85;5.95;;;;;;;20.30;60.11;100835.91;5039786;28;20123;-61
2021/07/09 06:30:36;;;;;;;13.95;6.43;;;;;;;20.39;60.02;100836.72;5040246;28;20128;-61
2021/07/09 06:33:03;;;;;;;12.77;6.10;;;;;;;20.56;59.53;100822.50;5030621;28;20048;-61
2021/07/09 06:35:30;;;;;;;13.50;6.93;;;;;;;20.72;59.28;100836.13;5033086;28;20725;-61
2021/07/09 06:37:58;;;;;;;10.65;5.72;;;;;;;20.87;58.91;100821.31;5029654;28;20124;-61
2021/07/09 06:40:25;;;;;;;11.48;5.93;;;;;;;21.18;58.35;100828.63;5034006;28;20075;-61
2021/07/09 06:42:55;;;;;;;12.52;7.10;;;;;;;21.47;57.92;100828.59;5029107;28;20103;-61
2021/07/09 06:45:22;;;;;;;13.00;5.90;;;;;;;21.75;57.47;100827.97;5018747;28;20041;-62
2021/07/09 06:47:49;;;;;;;14.27;6.30;;;;;;;21.98;56.75;100820.72;5033864;28;20120;-60
2021/07/09 06:50:17;;;;;;;17.10;6.43;;;;;;;22.31;56.39;100817.00;5032183;28;20042;-61
2021/07/09 06:52:45;;;;;;;12.68;5.85;;;;;;;22.50;55.63;100812.75;5033980;28;20146;-61
2021/07/09 06:55:13;;;;;;;11.57;5.25;;;;;;;22.73;55.25;100821.63;5031028;28;20115;-62
2021/07/09 06:57:46;;;;;;;16.00;5.82;;;;;;;22.85;54.72;100805.38;5031963;28;20108;-61
2021/07/09 07:00:15;;;;;;;15.18;5.85;;;;;;;23.13;54.06;100813.19;5033105;28;20068;-61
2021/07/09 07:02:42;;;;;;;13.63;6.15;;;;;;;23.09;53.92;100783.78;5042348;28;20124;-61
2021/07/09 07:05:10;;;;;;;11.60;6.32;;;;;;;23.42;53.32;100824.28;5033375;28;20601;-62
2021/07/09 07:07:37;;;;;;;13.88;6.18;;;;;;;23.48;53.36;100819.13;5039154;28;20041;-62
2021/07/09 07:10:06;;;;;;;13.48;6.43;;;;;;;23.69;52.88;100812.44;5030473;28;20124;-61
2021/07/09 07:12:33;;;;;;;19.65;6.43;;;;;;;23.95;52.52;100821.34;5032034;28;20077;-62
2021/07/09 07:15:02;;;;;;;19.60;6.28;;;;;;;24.14;52.22;100820.66;5030857;28;20046;-62
2021/07/09 07:17:28;;;;;;;16.20;6.53;;;;;;;24.34;51.72;100822.41;5031273;28;20077;-62
2021/07/09 07:19:55;;;;;;;16.42;5.60;;;;;;;24.48;51.08;100812.56;5035298;28;20087;-62
2021/07/09 07:22:22;;;;;;;20.35;6.70;;;;;;;24.74;51.03;100824.25;5034483;28;20081;-62
2021/07/09 07:24:51;;;;;;;14.32;5.95;;;;;;;24.82;50.22;100820.38;5036586;28;20500;-62
2021/07/09 07:27:21;;;;;;;22.00;7.07;;;;;;;24.99;50.14;100824.00;5035893;28;20453;-62
2021/07/09 07:29:47;;;;;;;;;;;;;;;24.96;51.33;100813.34;5036525;28;20080;-63
2021/07/09 07:32:15;;;;;;;12.27;5.35;;;;;;;25.29;50.31;100815.75;5035780;28;19953;-62
2021/07/09 07:34:42;;;;;;;15.55;6.32;;;;;;;25.51;49.32;100815.03;5035578;28;20048;-62
2021/07/09 07:37:09;;;;;;;14.32;6.32;;;;;;;25.67;49.03;100800.63;5035496;28;20046;-63
2021/07/09 07:39:36;;;;;;;17.98;7.03;;;;;;;25.89;48.20;100806.81;5035972;28;20224;-62
2021/07/09 07:42:03;;;;;;;19.75;6.65;;;;;;;26.16;47.55;100814.28;5037373;28;20079;-62
2021/07/09 07:44:30;;;;;;;11.13;6.13;;;;;;;26.33;47.27;100812.16;5035405;28;20196;-63
2021/07/09 07:46:57;;;;;;;15.75;6.55;;;;;;;26.47;47.15;100809.56;5035423;28;20050;-62
2021/07/09 07:49:24;;;;;;;12.38;5.95;;;;;;;26.61;46.93;100812.66;5033913;28;20076;-62
2021/07/09 07:51:53;;;;;;;13.77;5.85;;;;;;;26.76;46.75;100810.03;5035092;28;20050;-62
2021/07/09 07:54:20;;;;;;;13.55;6.40;;;;;;;26.85;46.28;100808.53;5044325;28;20563;-61
2021/07/09 07:56:47;;;;;;;16.35;6.07;;;;;;;26.96;46.18;100805.84;5052303;28;20123;-62
2021/07/09 07:59:14;;;;;;;11.23;6.07;;;;;;;27.12;45.74;100820.84;5046764;28;20123;-63
2021/07/09 08:01:41;;;;;;;12.85;6.82;;;;;;;26.84;45.91;100821.22;5049359;28;20106;-63
2021/07/09 08:04:08;;;;;;;16.50;7.25;;;;;;;26.56;46.57;100821.56;5050774;28;20497;-63
2021/07/09 08:06:35;;;;;;;11.75;6.32;;;;;;;26.39;46.61;100827.78;5044417;28;20080;-62
2021/07/09 08:09:02;;;;;;;11.90;6.85;;;;;;;26.33;46.42;100820.75;5034433;28;20084;-63
2021/07/09 08:11:33;;;;;;;10.80;6.30;;;;;;;26.22;46.73;100821.38;5033477;28;20041;-63
2021/07/09 08:14:00;;;;;;;11.50;6.32;;;;;;;26.20;47.01;100817.22;5038114;28;20065;-63
2021/07/09 08:16:27;;;;;;;12.82;6.95;;;;;;;26.23;46.75;100817.28;5035820;28;20096;-63
2021/07/09 08:18:54;;;;;;;13.90;5.95;;;;;;;26.24;46.61;100816.06;5039859;28;20044;-64
2021/07/09 08:21:21;;;;;;;11.52;5.78;;;;;;;26.24;46.71;100815.25;5054206;28;20080;-62
2021/07/09 08:23:48;;;;;;;11.95;6.45;;;;;;;26.26;46.60;100812.00;5054099;28;20049;-62
2021/07/09 08:26:15;;;;;;;13.15;6.55;;;;;;;26.33;46.65;100818.69;5052914;28;20045;-62
2021/07/09 08:28:42;;;;;;;15.80;6.88;;;;;;;26.39;46.67;100804.88;5052851;28;20132;-62
2021/07/09 08:31:09;;;;;;;10.52;6.35;;;;;;;26.57;46.03;100811.78;5046959;28;20578;-63
2021/07/09 08:33:36;;;;;;;10.95;5.95;;;;;;;26.60;46.29;100799.56;5040409;28;20462;-63
2021/07/09 08:36:03;;;;;;;9.35;5.85;;;;;;;26.73;46.29;100820.19;5049381;28;20049;-62
2021/07/09 08:38:31;;;;;;;11.15;5.63;;;;;;;26.83;45.77;100815.84;5043328;28;20045;-61
2021/07/09 08:40:58;;;;;;;15.57;5.85;;;;;;;26.98;45.46;100823.47;5043416;28;20132;-63
2021/07/09 08:43:52;;;;;;;12.85;5.97;;;;;;;27.13;45.54;100828.22;5033972;28;20048;-63
2021/07/09 08:46:20;;;;;;;12.48;5.57;;;;;;;27.18;45.40;100824.22;5034645;28;20046;-64
2021/07/09 08:48:58;;;;;;;10.45;5.82;;;;;;;27.41;45.44;100826.97;5048668;28;20057;-63
2021/07/09 08:51:25;;;;;;;16.17;6.35;;;;;;;27.64;45.21;100824.00;5033589;28;20046;-63
2021/07/09 08:53:52;;;;;;;16.05;7.20;;;;;;;27.81;44.40;100816.88;5033545;28;20140;-63
2021/07/09 08:56:19;;;;;;;16.95;7.25;;;;;;;27.99;44.55;100806.41;5036151;28;20056;-62
2021/07/09 08:58:46;;;;;;;18.20;7.30;;;;;;;28.14;44.15;100818.88;5047989;28;20045;-63
2021/07/09 09:01:14;;;;;;;15.60;7.50;;;;;;;28.27;44.02;100805.03;5040074;28;20382;-64
2021/07/09 09:03:41;;;;;;;11.30;6.90;;;;;;;28.39;43.52;100807.66;5039692;28;20049;-63
2021/07/09 09:06:15;;;;;;;14.32;7.22;;;;;;;28.32;43.59;100805.50;5034943;28;20112;-64
2021/07/09 09:08:43;;;;;;;16.27;6.00;;;;;;;28.32;43.83;100801.81;5033393;28;20069;-63
2021/07/09 09:11:10;;;;;;;12.85;6.32;;;;;;;28.44;43.08;100810.16;5033402;28;20084;-63
2021/07/09 09:13:38;;;;;;;12.85;5.45;;;;;;;28.61;42.81;100799.22;5046134;28;20045;-64
2021/07/09 09:16:15;;;;;;;13.80;5.70;;;;;;;28.81;43.18;100797.72;5047573;28;20045;-63
2021/07/09 09:18:44;;;;;;;13.02;6.47;;;;;;;28.96;42.09;100796.63;5036456;28;20482;-63
2021/07/09 09:21:19;;;;;;;18.48;6.93;;;;;;;29.09;42.32;100781.91;5043554;28;20122;-63
2021/07/09 09:23:52;;;;;;;10.88;5.57;;;;;;;29.19;41.86;100802.09;5042447;28;22334;-63
2021/07/09 09:26:45;;;;;;;12.35;6.25;;;;;;;29.16;42.02;100800.06;5032921;28;20045;-64
2021/07/09 09:29:25;;;;;;;13.57;5.68;;;;;;;29.09;42.00;100794.25;5042897;28;20643;-63
2021/07/09 09:31:57;;;;;;;13.43;6.63;;;;;;;29.02;42.33;100785.56;5041805;28;20047;-63
2021/07/09 09:34:44;;;;;;;15.77;7.15;;;;;;;29.10;42.60;100783.59;5048247;28;20037;-63
2021/07/09 09:37:16;;;;;;;9.75;5.82;;;;;;;29.18;41.66;100768.00;5041976;28;20461;-62
2021/07/09 09:39:45;;;;;;;13.70;5.35;;;;;;;29.37;41.20;100779.22;5034165;28;20557;-64
2021/07/09 09:42:21;;;;;;;9.93;6.10;;;;;;;29.40;41.35;100787.03;5039679;28;20417;-63
2021/07/09 09:44:51;;;;;;;9.73;5.50;;;;;;;29.45;41.22;100766.50;5035535;28;20140;-62
2021/07/09 09:47:21;;;;;;;14.68;6.50;;;;;;;29.50;41.68;100771.88;5041627;28;20042;-66
2021/07/09 09:49:53;;;;;;;16.45;6.57;;;;;;;29.62;41.52;100764.13;5047696;28;20128;-69
2021/07/09 09:52:46;;;;;;;10.73;5.82;;;;;;;29.77;41.43;100771.56;5033756;28;20115;-63
2021/07/09 09:55:20;;;;;;;11.60;5.20;;;;;;;29.98;40.65;100771.63;5043109;28;20072;-65
2021/07/09 09:57:48;;;;;;;11.50;6.45;;;;;;;30.04;40.42;100766.28;5038219;28;20143;-64
2021/07/09 10:00:20;;;;;;;17.92;6.82;;;;;;;30.14;40.34;100767.53;5033574;28;20119;-64
2021/07/09 10:02:48;;;;;;;12.55;6.25;;;;;;;30.34;40.83;100771.69;5032612;28;20041;-66
2021/07/09 10:05:16;;;;;;;11.35;5.93;;;;;;;30.49;40.03;100757.28;5047786;28;20075;-66
2021/07/09 10:07:44;;;;;;;12.75;5.60;;;;;;;30.70;40.31;100760.13;5048020;28;20128;-66
2021/07/09 10:10:13;;;;;;;19.63;7.03;;;;;;;31.04;39.75;100756.81;5048674;28;20136;-67
2021/07/09 10:12:59;;;;;;;12.93;6.30;;;;;;;31.47;39.23;100756.69;5049776;28;20068;-65
2021/07/09 10:15:28;;;;;;;14.10;6.53;;;;;;;31.82;38.44;100752.78;5036208;28;20045;-65
2021/07/09 10:17:57;;;;;;;13.35;6.20;;;;;;;31.90;38.77;100744.91;5041010;28;20072;-66
2021/07/09 10:20:25;;;;;;;12.85;6.90;;;;;;;32.17;38.44;100748.03;5035006;28;20041;-66
2021/07/09 10:22:53;;;;;;;14.20;7.65;;;;;;;32.33;37.98;100749.13;5037280;28;20131;-67
2021/07/09 10:25:23;;;;;;;17.98;8.57;;;;;;;32.35;37.75;100742.13;5046096;28;20574;-68
2021/07/09 10:27:50;;;;;;;14.88;7.35;;;;;;;32.54;37.49;100747.34;5052251;28;20080;-68
2021/07/09 10:30:18;;;;;;;12.88;6.88;;;;;;;32.63;37.80;100733.22;5035587;28;20128;-68
2021/07/09 10:32:49;;;;;;;13.57;6.75;;;;;;;32.91;37.17;100740.75;5037468;28;20131;-67
2021/07/09 10:35:41;;;;;;;15.63;6.85;;;;;;;33.06;37.36;100735.69;5044956;28;20091;-69
2021/07/09 10:38:09;;;;;;;24.75;5.68;;;;;;;33.35;36.94;100733.25;5032893;28;20053;-67
2021/07/09 10:40:37;;;;;;;12.98;6.45;;;;;;;33.49;36.75;100740.97;5032899;28;20472;-68
2021/07/09 10:43:05;;;;;;;11.35;5.50;;;;;;;33.58;36.39;100741.25;5037830;28;20076;-69
2021/07/09 10:45:32;;;;;;;13.82;4.97;;;;;;;33.47;36.40;100740.53;5031779;28;20077;-68
2021/07/09 10:48:16;;;;;;;12.45;6.15;;;;;;;33.52;36.56;100734.31;5041189;28;20045;-68
2021/07/09 10:50:50;;;;;;;16.02;6.97;;;;;;;33.60;36.03;100747.41;5038630;28;20099;-69
2021/07/09 10:53:18;;;;;;;14.98;6.40;;;;;;;33.55;36.01;100747.91;5038080;28;20136;-68
2021/07/09 10:55:53;;;;;;;13.82;7.25;;;;;;;33.57;36.00;100738.78;5051644;28;20132;-69
2021/07/09 10:58:34;;;;;;;14.85;6.47;;;;;;;33.68;35.57;100734.50;5035414;28;20052;-69
2021/07/09 11:01:22;;;;;;;14.02;6.68;;;;;;;33.59;36.07;100728.41;5035977;28;20073;-72
2021/07/09 11:03:57;;;;;;;11.48;6.03;;;;;;;33.69;35.78;100744.81;5031709;28;20042;-73
2021/07/09 11:06:31;;;;;;;;;;;;;;;33.33;37.67;100732.03;5032935;28;20077;-71
2021/07/09 11:09:03;;;;;;;8.40;5.13;;;;;;;33.83;35.91;100734.28;5033742;28;20004;-71
2021/07/09 11:12:02;;;;;;;14.80;6.07;;;;;;;33.82;35.76;100718.97;5031813;28;20055;-70
2021/07/09 11:14:35;;;;;;;10.95;5.18;;;;;;;34.07;35.38;100738.91;5031902;28;20072;-70
2021/07/09 11:17:14;;;;;;;9.63;5.82;;;;;;;34.04;35.03;100736.88;5044727;28;20631;-74
2021/07/09 11:19:46;;;;;;;12.85;5.25;;;;;;;34.00;34.84;100735.28;5036622;28;20128;-68
2021/07/09 11:22:18;;;;;;;11.98;5.63;;;;;;;34.12;34.60;100738.41;5041159;28;20442;-63
2021/07/09 11:24:53;;;;;;;14.32;5.78;;;;;;;34.22;34.19;100732.84;5031704;28;20140;-61